Meridian Bioscience Institutional Ownership (NASDAQ:VIVO)

$9.87
+0.34 (+3.57 %)
(As of 09/22/2019 07:52 AM ET)
Today's Range
$9.54
Now: $9.87
$9.93
50-Day Range
$9.13
MA: $10.04
$12.03
52-Week Range
$8.96
Now: $9.87
$19.84
Volume482,662 shs
Average Volume211,554 shs
Market Capitalization$421.55 million
P/E Ratio12.71
Dividend Yield2.62%
Beta0.4

Institutional Ownership

Institutional Ownership Changes (13F Filings) for Meridian Bioscience (NASDAQ:VIVO)

Institutional Ownership Percentage: 88.50%

Meridian Bioscience (NASDAQ VIVO) Institutional Buying and Selling

Reporting DateHedge FundShares HeldMarket Value% of PortfolioQuarterly Change in SharesOwnership in Company
8/17/2019Royal Bank of Canada75,771$0.90M0.0%+43.3%0.177%
8/17/2019Ladenburg Thalmann Financial Services Inc.4,869$58K0.0%+113.7%0.011%
8/16/2019United Services Automobile Association51,584$0.61M0.0%+20.9%0.121%
8/15/2019Schroder Investment Management Group22,281$0.27M0.0%-36.9%0.052%
8/15/2019Nuveen Asset Management LLC273,681$3.25M0.0%N/A0.641%
8/15/2019Victory Capital Management Inc.60,824$0.72M0.0%-7.3%0.142%
8/15/2019UBS Asset Management Americas Inc.28,530$0.34M0.0%+4.2%0.067%
8/14/2019D. E. Shaw & Co. Inc.619,878$7.36M0.0%+61.1%1.451%
8/14/2019Cubist Systematic Strategies LLC31,947$0.38M0.0%N/A0.075%
8/14/2019Marshall Wace LLP312,886$3.72M0.0%+285.5%0.733%
8/14/2019Morgan Stanley201,290$2.39M0.0%-57.1%0.471%
8/14/2019AQR Capital Management LLC100,986$1.20M0.0%+60.5%0.236%
8/14/2019Paloma Partners Management Co44,702$0.53M0.0%N/A0.105%
8/14/2019Man Group plc205,736$2.44M0.0%-8.9%0.482%
8/14/2019Bank of America Corp DE92,211$1.10M0.0%+16.3%0.216%
8/14/2019Zebra Capital Management LLC10,055$0.12M0.1%-15.5%0.024%
8/14/2019Invesco Ltd.386,947$4.60M0.0%-20.7%0.906%
8/14/2019Vanguard Group Inc.4,568,214$54.27M0.0%+0.2%10.696%
8/14/2019Johnson Investment Counsel Inc.19,917$0.24M0.0%+14.7%0.047%
8/13/2019Laurion Capital Management LP13,272$0.16M0.0%N/A0.031%
8/13/2019BlackRock Inc.6,457,345$76.71M0.0%+2.2%15.119%
8/13/2019Pinebridge Investments L.P.2,866$34K0.0%-86.1%0.007%
8/13/2019Parametric Portfolio Associates LLC170,483$2.03M0.0%-53.0%0.399%
8/13/2019Brown Capital Management LLC3,599,792$42.77M0.4%-0.7%8.428%
8/13/2019Bogle Investment Management L P DE108,884$1.29M0.1%-19.9%0.255%
8/13/2019Alambic Investment Management L.P.53,594$0.64M0.4%N/A0.125%
8/13/2019Northern Trust Corp570,053$6.77M0.0%-4.6%1.335%
8/13/2019Canada Pension Plan Investment Board50,000$0.59M0.0%N/A0.117%
8/12/2019Pacer Advisors Inc.12,380$0.15M0.0%N/A0.029%
8/12/2019Renaissance Technologies LLC2,953,000$35.08M0.0%-1.7%6.914%
8/12/2019Bank of New York Mellon Corp543,357$6.46M0.0%-22.6%1.272%
8/12/2019Capital Fund Management S.A.11,600$0.14M0.0%N/A0.027%
8/10/2019Charles Schwab Investment Management Inc.426,346$5.07M0.0%-23.3%1.003%
8/9/2019Trexquant Investment LP11,884$0.14M0.0%N/A0.028%
8/9/2019Bank of Montreal Can152,959$1.82M0.0%-1.6%0.360%
8/9/2019Russell Investments Group Ltd.26,900$0.32M0.0%+849.9%0.063%
8/9/2019Verity Asset Management Inc.27,338$0.44M0.4%+15.1%0.064%
8/9/2019Prudential Financial Inc.84,224$1M0.0%+4.1%0.198%
8/9/2019Schroder Investment Management Group22,281$0.27M0.0%-36.9%0.052%
8/8/2019Acadian Asset Management LLC320,309$3.80M0.0%+255.9%0.754%
8/7/2019Connor Clark & Lunn Investment Management Ltd.82,525$0.98M0.0%N/A0.194%
8/7/2019JPMorgan Chase & Co.224,748$2.63M0.0%-15.6%0.529%
8/6/2019Wells Fargo & Company MN398,582$4.74M0.0%+1.4%0.938%
8/6/2019GSA Capital Partners LLP51,832$0.62M0.1%N/A0.122%
8/6/2019Stone Ridge Asset Management LLC40,732$0.48M0.0%+25.5%0.096%
8/6/2019Verity Asset Management Inc.27,338$0.44M0.4%+15.1%0.064%
8/5/2019Meeder Asset Management Inc.12,580$0.15M0.0%+710.6%0.030%
8/2/2019Teton Advisors Inc.122,000$1.45M0.1%-9.0%0.287%
8/2/2019Gabelli Funds LLC125,500$1.49M0.0%-25.7%0.295%
8/2/2019Swiss National Bank79,000$0.94M0.0%+2.2%0.186%
8/2/2019Comerica Bank39,168$0.45M0.0%-7.7%0.092%
8/1/2019Wedge Capital Management L L P NC41,480$0.49M0.0%N/A0.098%
7/31/2019Municipal Employees Retirement System of Michigan70,510$0.84M0.1%-1.5%0.166%
7/31/2019Coastal Capital Group Inc.2,064$25K0.0%N/A0.005%
7/30/2019Aperio Group LLC34,599$0.41M0.0%-27.3%0.081%
7/30/2019BNP Paribas Arbitrage SA8,674$0.10M0.0%-10.5%0.020%
6/30/2019Systematic Financial Management LP1,193,188$14.18M0.6%+3.9%2.808%
6/30/2019Financial Gravity Wealth Inc.2,441$29K0.0%N/A0.006%
6/30/2019State of Alaska Department of Revenue14,511$0.17M0.0%-27.4%0.034%
6/30/2019Bessemer Group Inc.55,900$0.66M0.0%-52.1%0.132%
6/30/2019Eqis Capital Management Inc.30,894$0.37M0.0%N/A0.073%
6/30/2019New York State Teachers Retirement System122,929$1.46M0.0%-7.1%0.289%
6/30/20196 Meridian42,384$0.50M0.1%+4.9%0.100%
6/30/2019Nisa Investment Advisors LLC25,220$0.30M0.0%-3.4%0.059%
6/30/2019WINTON GROUP Ltd28,286$0.34M0.0%N/A0.067%
6/16/2019Marshall Wace LLP81,165$1.43M0.0%-66.1%0.191%
5/13/2019O Shares Investment Advisers LLC27,353$0.48M0.1%-10.1%0.064%
5/13/2019Vaughan Nelson Investment Management L.P.1,462,615$25.76M0.3%+91.0%3.442%
5/10/2019O Shaughnessy Asset Management LLC66,302$1.16M0.0%+136.6%0.156%
5/9/2019Royce & Associates LP78,761$1.39M0.0%-44.7%0.185%
5/9/2019Acadian Asset Management LLC90,010$1.58M0.0%+39.5%0.212%
5/8/2019Martingale Asset Management L P331,402$5.84M0.1%+12.9%0.780%
5/7/2019JPMorgan Chase & Co.266,194$4.69M0.0%-11.3%0.627%
5/7/2019LSV Asset Management98,300$1.73M0.0%-22.4%0.231%
5/7/2019Cadence Capital Management LLC76,464$1.35M0.1%N/A0.180%
5/7/2019MERIAN GLOBAL INVESTORS UK Ltd28,899$0.51M0.0%+44.5%0.068%
5/6/2019American International Group Inc.31,504$0.56M0.0%-2.6%0.074%
5/3/2019Systematic Financial Management LP1,148,419$20.22M0.7%-0.2%2.703%
5/3/2019Victory Capital Management Inc.65,580$1.16M0.0%-33.5%0.154%
5/3/2019Advisors Preferred LLC15,560$0.27M0.1%+155.9%0.037%
5/2/2019Gabelli Funds LLC169,000$2.98M0.0%-8.2%0.398%
5/2/2019Texas Permanent School Fund28,849$0.51M0.0%+4.0%0.068%
5/2/2019Comerica Bank42,420$0.56M0.0%+2.3%0.100%
4/30/2019First Republic Investment Management Inc.10,948$0.19M0.0%-41.5%0.026%
4/29/2019Quantamental Technologies LLC3,179$56K0.0%N/A0.007%
4/29/2019SG Americas Securities LLC13,941$0.25M0.0%N/A0.033%
4/29/2019Quadrant Capital Group LLC1,874$31K0.0%+441.6%0.004%
4/26/2019Bank of Montreal Can155,456$2.74M0.0%+91.7%0.366%
4/25/2019BNP Paribas Arbitrage SA9,688$0.17M0.0%+298.7%0.023%
4/25/2019Los Angeles Capital Management & Equity Research Inc.87,715$1.55M0.0%-54.5%0.206%
4/25/2019Virginia Retirement Systems ET AL77,100$1.36M0.0%+7.2%0.181%
4/23/2019Brinker Capital Inc.49,439$0.87M0.0%-2.8%0.116%
4/18/2019Ronna Sue Cohen32,106$0.57M0.4%-13.5%0.076%
4/17/2019Nisa Investment Advisors LLC26,120$0.46M0.0%+4.4%0.061%
4/17/2019Ronna Sue Cohen565,381$0.57M0.4%+1,423.0%1.331%
4/16/2019Meeder Asset Management Inc.1,552$27K0.0%+196.7%0.004%
4/12/2019First Manhattan Co.5,262$92K0.0%-25.5%0.012%
4/11/2019Cardinal Capital Management31,208$0.55M0.2%+3.8%0.073%
4/10/20196 Meridian40,420$0.71M0.1%N/A0.095%
4/1/2019Deutsche Bank AG120,581$2.09M0.0%-50.2%0.284%
(Data available from 1/1/2016 forward)
This page was last updated on 9/22/2019 by MarketBeat.com Staff

Featured Article: Do You Need a Fiduciary?

Enter your email address below to receive a concise daily summary of analysts' upgrades, downgrades and new coverage with MarketBeat.com's FREE daily email newsletter.

Yahoo Gemini Pixel